sensor_id;sensor_type;location;lat;lon;timestamp;pressure;altitude;pressure_sealevel;temperature;humidity
23166;BME280;11751;42.700;24.170;2023-05-19T00:01:07;94045.00;;;13.41;nan
23166;BME280;11751;42.700;24.170;2023-05-19T00:03:34;94023.81;;;13.23;nan
23166;BME280;11751;42.700;24.170;2023-05-19T00:06:05;94031.53;;;13.39;nan
23166;BME280;11751;42.700;24.170;2023-05-19T00:08:33;94011.44;;;13.26;nan
23166;BME280;11751;42.700;24.170;2023-05-19T00:11:00;94021.34;;;13.02;nan
23166;BME280;11751;42.700;24.170;2023-05-19T00:13:26;93995.75;;;13.15;nan
23166;BME280;11751;42.700;24.170;2023-05-19T00:15:52;94013.09;;;13.04;nan
23166;BME280;11751;42.700;24.170;2023-05-19T00:18:18;94036.63;;;12.92;nan
23166;BME280;11751;42.700;24.170;2023-05-19T00:20:46;94047.06;;;12.99;nan
23166;BME280;11751;42.700;24.170;2023-05-19T00:23:11;94032.16;;;12.89;nan
23166;BME280;11751;42.700;24.170;2023-05-19T00:25:37;94015.22;;;12.96;nan
23166;BME280;11751;42.700;24.170;2023-05-19T00:28:02;94018.16;;;12.81;nan
23166;BME280;11751;42.700;24.170;2023-05-19T00:30:28;94044.13;;;12.65;nan
23166;BME280;11751;42.700;24.170;2023-05-19T00:32:54;94041.13;;;12.63;nan
23166;BME280;11751;42.700;24.170;2023-05-19T00:35:20;94021.75;;;12.75;nan
23166;BME280;11751;42.700;24.170;2023-05-19T00:37:46;94048.66;;;12.85;nan
23166;BME280;11751;42.700;24.170;2023-05-19T00:40:11;94048.13;;;12.79;nan
23166;BME280;11751;42.700;24.170;2023-05-19T00:42:37;94049.97;;;12.84;nan
23166;BME280;11751;42.700;24.170;2023-05-19T00:45:03;94046.91;;;12.65;nan
23166;BME280;11751;42.700;24.170;2023-05-19T00:47:29;94050.41;;;12.73;nan
23166;BME280;11751;42.700;24.170;2023-05-19T00:49:55;94042.06;;;12.90;nan
23166;BME280;11751;42.700;24.170;2023-05-19T00:52:20;94049.00;;;12.89;nan
23166;BME280;11751;42.700;24.170;2023-05-19T00:54:46;94050.47;;;12.66;nan
23166;BME280;11751;42.700;24.170;2023-05-19T00:57:13;94049.38;;;12.85;nan
23166;BME280;11751;42.700;24.170;2023-05-19T00:59:39;94045.75;;;13.00;nan
23166;BME280;11751;42.700;24.170;2023-05-19T01:02:04;94032.31;;;12.91;nan
23166;BME280;11751;42.700;24.170;2023-05-19T01:04:31;94032.31;;;12.91;nan
23166;BME280;11751;42.700;24.170;2023-05-19T01:06:59;94035.09;;;12.98;nan
23166;BME280;11751;42.700;24.170;2023-05-19T01:09:25;94028.03;;;12.90;nan
23166;BME280;11751;42.700;24.170;2023-05-19T01:11:51;94020.94;;;12.57;nan
23166;BME280;11751;42.700;24.170;2023-05-19T01:14:17;94034.00;;;12.62;nan
23166;BME280;11751;42.700;24.170;2023-05-19T01:16:49;94044.66;;;12.64;nan
23166;BME280;11751;42.700;24.170;2023-05-19T01:19:36;94041.53;;;12.60;nan
23166;BME280;11751;42.700;24.170;2023-05-19T01:26:21;94036.56;;;12.75;nan
23166;BME280;11751;42.700;24.170;2023-05-19T01:30:54;94032.31;;;12.91;nan
23166;BME280;11751;42.700;24.170;2023-05-19T01:33:21;94040.69;;;12.74;nan
23166;BME280;11751;42.700;24.170;2023-05-19T01:35:48;94036.72;;;12.77;nan
23166;BME280;11751;42.700;24.170;2023-05-19T01:38:16;94048.06;;;12.94;nan
23166;BME280;11751;42.700;24.170;2023-05-19T01:40:42;94060.78;;;12.95;nan
23166;BME280;11751;42.700;24.170;2023-05-19T01:43:11;94037.13;;;12.98;nan
23166;BME280;11751;42.700;24.170;2023-05-19T01:45:37;94022.44;;;13.07;nan
23166;BME280;11751;42.700;24.170;2023-05-19T01:48:03;94054.91;;;13.25;nan
23166;BME280;11751;42.700;24.170;2023-05-19T01:50:29;94040.22;;;13.51;nan
23166;BME280;11751;42.700;24.170;2023-05-19T01:52:55;94033.94;;;13.76;nan
23166;BME280;11751;42.700;24.170;2023-05-19T01:55:21;94038.19;;;13.85;nan
23166;BME280;11751;42.700;24.170;2023-05-19T02:06:07;94035.47;;;14.11;nan
23166;BME280;11751;42.700;24.170;2023-05-19T02:11:21;94050.00;;;14.00;nan
23166;BME280;11751;42.700;24.170;2023-05-19T02:13:53;94046.72;;;14.11;nan
23166;BME280;11751;42.700;24.170;2023-05-19T02:16:20;94055.31;;;13.96;nan
23166;BME280;11751;42.700;24.170;2023-05-19T02:18:49;94064.56;;;14.06;nan
23166;BME280;11751;42.700;24.170;2023-05-19T02:21:16;94074.84;;;14.28;nan
23166;BME280;11751;42.700;24.170;2023-05-19T02:23:41;94076.13;;;14.18;nan
23166;BME280;11751;42.700;24.170;2023-05-19T02:26:06;94059.28;;;14.10;nan
23166;BME280;11751;42.700;24.170;2023-05-19T02:28:33;94049.16;;;14.07;nan
23166;BME280;11751;42.700;24.170;2023-05-19T02:30:59;94051.59;;;14.28;nan
23166;BME280;11751;42.700;24.170;2023-05-19T02:33:25;94056.28;;;14.08;nan
23166;BME280;11751;42.700;24.170;2023-05-19T02:35:52;94038.50;;;14.23;nan
23166;BME280;11751;42.700;24.170;2023-05-19T02:38:17;94057.47;;;14.22;nan
23166;BME280;11751;42.700;24.170;2023-05-19T02:40:43;94069.72;;;14.17;nan
23166;BME280;11751;42.700;24.170;2023-05-19T02:43:08;94051.50;;;14.01;nan
23166;BME280;11751;42.700;24.170;2023-05-19T02:45:33;94048.09;;;14.03;nan
23166;BME280;11751;42.700;24.170;2023-05-19T02:47:59;94034.91;;;14.05;nan
23166;BME280;11751;42.700;24.170;2023-05-19T02:50:24;94053.50;;;13.91;nan
23166;BME280;11751;42.700;24.170;2023-05-19T02:52:50;94064.94;;;13.93;nan
23166;BME280;11751;42.700;24.170;2023-05-19T02:55:16;94064.41;;;13.87;nan
23166;BME280;11751;42.700;24.170;2023-05-19T02:57:42;94045.53;;;13.64;nan
23166;BME280;11751;42.700;24.170;2023-05-19T03:00:08;94054.78;;;13.57;nan
23166;BME280;11751;42.700;24.170;2023-05-19T03:02:33;94063.16;;;13.64;nan
23166;BME280;11751;42.700;24.170;2023-05-19T03:04:59;94061.50;;;13.61;nan
23166;BME280;11751;42.700;24.170;2023-05-19T03:07:27;94054.72;;;13.47;nan
23166;BME280;11751;42.700;24.170;2023-05-19T03:09:52;94073.19;;;13.33;nan
23166;BME280;11751;42.700;24.170;2023-05-19T03:12:18;94065.19;;;13.47;nan
23166;BME280;11751;42.700;24.170;2023-05-19T03:14:43;94066.38;;;13.44;nan
23166;BME280;11751;42.700;24.170;2023-05-19T03:17:09;94058.50;;;13.42;nan
23166;BME280;11751;42.700;24.170;2023-05-19T03:19:35;94071.66;;;13.40;nan
23166;BME280;11751;42.700;24.170;2023-05-19T03:22:00;94079.38;;;13.56;nan
23166;BME280;11751;42.700;24.170;2023-05-19T03:24:26;94079.44;;;13.49;nan
23166;BME280;11751;42.700;24.170;2023-05-19T03:26:51;94080.25;;;13.42;nan
23166;BME280;11751;42.700;24.170;2023-05-19T03:29:17;94082.06;;;13.47;nan
23166;BME280;11751;42.700;24.170;2023-05-19T03:31:42;94091.78;;;13.53;nan
23166;BME280;11751;42.700;24.170;2023-05-19T03:34:07;94077.63;;;13.44;nan
23166;BME280;11751;42.700;24.170;2023-05-19T03:36:33;94080.75;;;13.48;nan
23166;BME280;11751;42.700;24.170;2023-05-19T03:39:04;94071.56;;;13.30;nan
23166;BME280;11751;42.700;24.170;2023-05-19T03:41:29;94074.44;;;13.23;nan
23166;BME280;11751;42.700;24.170;2023-05-19T03:43:55;94076.88;;;13.19;nan
23166;BME280;11751;42.700;24.170;2023-05-19T03:46:20;94076.25;;;13.28;nan
23166;BME280;11751;42.700;24.170;2023-05-19T03:48:46;94083.19;;;13.27;nan
23166;BME280;11751;42.700;24.170;2023-05-19T03:51:11;94081.19;;;13.20;nan
23166;BME280;11751;42.700;24.170;2023-05-19T03:53:37;94079.91;;;13.38;nan
23166;BME280;11751;42.700;24.170;2023-05-19T03:56:03;94081.47;;;13.72;nan
23166;BME280;11751;42.700;24.170;2023-05-19T03:58:28;94086.25;;;13.96;nan
23166;BME280;11751;42.700;24.170;2023-05-19T04:00:54;94090.09;;;13.91;nan
23166;BME280;11751;42.700;24.170;2023-05-19T04:03:19;94075.00;;;13.79;nan
23166;BME280;11751;42.700;24.170;2023-05-19T04:05:45;94071.22;;;13.84;nan
23166;BME280;11751;42.700;24.170;2023-05-19T04:08:10;94076.81;;;13.67;nan
23166;BME280;11751;42.700;24.170;2023-05-19T04:10:36;94060.94;;;13.63;nan
23166;BME280;11751;42.700;24.170;2023-05-19T04:13:01;94065.25;;;13.64;nan
23166;BME280;11751;42.700;24.170;2023-05-19T04:15:27;94055.72;;;13.93;nan
23166;BME280;11751;42.700;24.170;2023-05-19T04:17:52;94075.53;;;14.02;nan
23166;BME280;11751;42.700;24.170;2023-05-19T04:20:18;94087.94;;;13.99;nan
23166;BME280;11751;42.700;24.170;2023-05-19T04:22:43;94080.31;;;14.09;nan
23166;BME280;11751;42.700;24.170;2023-05-19T04:25:09;94075.03;;;14.13;nan
23166;BME280;11751;42.700;24.170;2023-05-19T04:27:34;94082.53;;;13.94;nan
23166;BME280;11751;42.700;24.170;2023-05-19T04:30:06;94079.34;;;14.14;nan
23166;BME280;11751;42.700;24.170;2023-05-19T04:32:32;94068.91;;;14.24;nan
23166;BME280;11751;42.700;24.170;2023-05-19T04:34:58;94077.31;;;14.41;nan
23166;BME280;11751;42.700;24.170;2023-05-19T04:37:24;94070.25;;;14.50;nan
23166;BME280;11751;42.700;24.170;2023-05-19T04:39:50;94072.03;;;14.71;nan
23166;BME280;11751;42.700;24.170;2023-05-19T04:42:16;94070.66;;;14.63;nan
23166;BME280;11751;42.700;24.170;2023-05-19T04:44:46;94075.38;;;15.23;nan
23166;BME280;11751;42.700;24.170;2023-05-19T04:47:13;94074.44;;;16.11;nan
23166;BME280;11751;42.700;24.170;2023-05-19T04:49:39;94073.09;;;16.68;nan
23166;BME280;11751;42.700;24.170;2023-05-19T04:52:06;94071.59;;;16.77;nan
23166;BME280;11751;42.700;24.170;2023-05-19T04:54:33;94090.78;;;17.37;nan
23166;BME280;11751;42.700;24.170;2023-05-19T04:56:59;94093.50;;;17.65;nan
23166;BME280;11751;42.700;24.170;2023-05-19T04:59:24;94102.03;;;17.56;nan
23166;BME280;11751;42.700;24.170;2023-05-19T05:01:49;94110.44;;;17.44;nan
23166;BME280;11751;42.700;24.170;2023-05-19T05:04:15;94106.31;;;17.17;nan
23166;BME280;11751;42.700;24.170;2023-05-19T05:06:40;94106.72;;;16.55;nan
23166;BME280;11751;42.700;24.170;2023-05-19T05:09:12;94113.56;;;16.61;nan
23166;BME280;11751;42.700;24.170;2023-05-19T05:11:37;94113.59;;;16.42;nan
23166;BME280;11751;42.700;24.170;2023-05-19T05:14:03;94104.34;;;16.32;nan
23166;BME280;11751;42.700;24.170;2023-05-19T05:16:29;94099.66;;;15.80;nan
23166;BME280;11751;42.700;24.170;2023-05-19T05:18:55;94119.72;;;15.75;nan
23166;BME280;11751;42.700;24.170;2023-05-19T05:21:22;94102.97;;;16.24;nan
23166;BME280;11751;42.700;24.170;2023-05-19T05:23:49;94105.81;;;16.71;nan
23166;BME280;11751;42.700;24.170;2023-05-19T05:26:19;94115.19;;;16.64;nan
23166;BME280;11751;42.700;24.170;2023-05-19T05:28:47;94118.47;;;16.42;nan
23166;BME280;11751;42.700;24.170;2023-05-19T05:31:13;94115.63;;;16.61;nan
23166;BME280;11751;42.700;24.170;2023-05-19T05:33:39;94121.00;;;16.66;nan
23166;BME280;11751;42.700;24.170;2023-05-19T05:36:05;94128.00;;;16.56;nan
23166;BME280;11751;42.700;24.170;2023-05-19T05:38:31;94134.03;;;17.09;nan
23166;BME280;11751;42.700;24.170;2023-05-19T05:40:56;94130.25;;;17.75;nan
23166;BME280;11751;42.700;24.170;2023-05-19T05:43:22;94117.66;;;18.38;nan
23166;BME280;11751;42.700;24.170;2023-05-19T05:45:47;94112.00;;;18.91;nan
23166;BME280;11751;42.700;24.170;2023-05-19T05:48:13;94130.91;;;19.10;nan
23166;BME280;11751;42.700;24.170;2023-05-19T05:50:38;94121.88;;;19.34;nan
23166;BME280;11751;42.700;24.170;2023-05-19T05:53:05;94131.69;;;19.77;nan
23166;BME280;11751;42.700;24.170;2023-05-19T05:55:32;94130.47;;;20.26;nan
23166;BME280;11751;42.700;24.170;2023-05-19T05:57:57;94134.56;;;20.70;nan
23166;BME280;11751;42.700;24.170;2023-05-19T06:00:23;94130.84;;;20.68;nan
23166;BME280;11751;42.700;24.170;2023-05-19T06:02:49;94118.53;;;20.52;nan
23166;BME280;11751;42.700;24.170;2023-05-19T06:05:16;94119.88;;;20.99;nan
23166;BME280;11751;42.700;24.170;2023-05-19T06:07:42;94126.78;;;21.07;nan
23166;BME280;11751;42.700;24.170;2023-05-19T06:10:08;94137.31;;;20.68;nan
23166;BME280;11751;42.700;24.170;2023-05-19T06:12:34;94131.50;;;20.66;nan
23166;BME280;11751;42.700;24.170;2023-05-19T06:15:01;94121.69;;;21.06;nan
23166;BME280;11751;42.700;24.170;2023-05-19T06:17:27;94124.06;;;20.73;nan
23166;BME280;11751;42.700;24.170;2023-05-19T06:19:53;94118.97;;;21.08;nan
23166;BME280;11751;42.700;24.170;2023-05-19T06:22:18;94121.31;;;21.36;nan
23166;BME280;11751;42.700;24.170;2023-05-19T06:24:44;94123.06;;;21.05;nan
23166;BME280;11751;42.700;24.170;2023-05-19T06:27:09;94120.03;;;21.39;nan
23166;BME280;11751;42.700;24.170;2023-05-19T06:29:35;94127.78;;;21.50;nan
23166;BME280;11751;42.700;24.170;2023-05-19T06:32:00;94128.59;;;21.64;nan
23166;BME280;11751;42.700;24.170;2023-05-19T06:34:26;94129.19;;;21.24;nan
23166;BME280;11751;42.700;24.170;2023-05-19T06:36:51;94120.63;;;20.99;nan
23166;BME280;11751;42.700;24.170;2023-05-19T06:39:16;94133.47;;;21.61;nan
23166;BME280;11751;42.700;24.170;2023-05-19T06:41:42;94126.88;;;21.59;nan
23166;BME280;11751;42.700;24.170;2023-05-19T06:44:07;94125.31;;;21.56;nan
23166;BME280;11751;42.700;24.170;2023-05-19T06:46:33;94130.25;;;21.94;nan
23166;BME280;11751;42.700;24.170;2023-05-19T06:48:58;94128.47;;;22.14;nan
23166;BME280;11751;42.700;24.170;2023-05-19T06:51:24;94138.41;;;22.13;nan
23166;BME280;11751;42.700;24.170;2023-05-19T06:53:51;94129.81;;;21.86;nan
23166;BME280;11751;42.700;24.170;2023-05-19T06:56:16;94125.31;;;21.56;nan
23166;BME280;11751;42.700;24.170;2023-05-19T06:58:43;94124.31;;;21.52;nan
23166;BME280;11751;42.700;24.170;2023-05-19T07:01:09;94129.88;;;21.36;nan
23166;BME280;11751;42.700;24.170;2023-05-19T07:03:34;94117.88;;;21.51;nan
23166;BME280;11751;42.700;24.170;2023-05-19T07:06:00;94115.84;;;21.65;nan
23166;BME280;11751;42.700;24.170;2023-05-19T07:08:25;94131.38;;;21.26;nan
23166;BME280;11751;42.700;24.170;2023-05-19T07:10:52;94112.03;;;21.11;nan
23166;BME280;11751;42.700;24.170;2023-05-19T07:13:17;94117.78;;;21.24;nan
23166;BME280;11751;42.700;24.170;2023-05-19T07:15:43;94132.25;;;20.56;nan
23166;BME280;11751;42.700;24.170;2023-05-19T07:18:08;94130.53;;;20.98;nan
23166;BME280;11751;42.700;24.170;2023-05-19T07:20:34;94135.44;;;21.09;nan
23166;BME280;11751;42.700;24.170;2023-05-19T07:22:59;94126.09;;;20.95;nan
23166;BME280;11751;42.700;24.170;2023-05-19T07:25:27;94135.44;;;21.09;nan
23166;BME280;11751;42.700;24.170;2023-05-19T07:27:55;94124.44;;;21.29;nan
23166;BME280;11751;42.700;24.170;2023-05-19T07:30:20;94129.06;;;21.47;nan
23166;BME280;11751;42.700;24.170;2023-05-19T07:32:46;94117.47;;;21.18;nan
23166;BME280;11751;42.700;24.170;2023-05-19T07:35:11;94128.31;;;21.47;nan
23166;BME280;11751;42.700;24.170;2023-05-19T07:37:37;94129.00;;;21.58;nan
23166;BME280;11751;42.700;24.170;2023-05-19T07:40:03;94121.34;;;21.50;nan
23166;BME280;11751;42.700;24.170;2023-05-19T07:42:29;94118.81;;;21.67;nan
23166;BME280;11751;42.700;24.170;2023-05-19T07:44:54;94120.50;;;21.47;nan
23166;BME280;11751;42.700;24.170;2023-05-19T07:47:20;94120.34;;;21.56;nan
23166;BME280;11751;42.700;24.170;2023-05-19T07:49:45;94121.31;;;21.61;nan
23166;BME280;11751;42.700;24.170;2023-05-19T07:52:11;94127.97;;;21.65;nan
23166;BME280;11751;42.700;24.170;2023-05-19T07:54:37;94134.31;;;21.77;nan
23166;BME280;11751;42.700;24.170;2023-05-19T07:57:02;94139.78;;;21.60;nan
23166;BME280;11751;42.700;24.170;2023-05-19T07:59:28;94142.66;;;21.73;nan
23166;BME280;11751;42.700;24.170;2023-05-19T08:01:53;94141.09;;;21.84;nan
23166;BME280;11751;42.700;24.170;2023-05-19T08:04:19;94146.72;;;22.09;nan
23166;BME280;11751;42.700;24.170;2023-05-19T08:06:44;94145.69;;;22.16;nan
23166;BME280;11751;42.700;24.170;2023-05-19T08:09:10;94151.56;;;22.31;nan
23166;BME280;11751;42.700;24.170;2023-05-19T08:11:36;94161.97;;;22.27;nan
23166;BME280;11751;42.700;24.170;2023-05-19T08:14:01;94149.09;;;22.26;nan
23166;BME280;11751;42.700;24.170;2023-05-19T08:16:27;94160.75;;;22.56;nan
23166;BME280;11751;42.700;24.170;2023-05-19T08:18:52;94154.72;;;22.37;nan
23166;BME280;11751;42.700;24.170;2023-05-19T08:21:19;94161.41;;;22.03;nan
23166;BME280;11751;42.700;24.170;2023-05-19T08:23:44;94161.50;;;22.05;nan
23166;BME280;11751;42.700;24.170;2023-05-19T08:26:10;94161.91;;;22.38;nan
23166;BME280;11751;42.700;24.170;2023-05-19T08:28:35;94162.06;;;22.15;nan
23166;BME280;11751;42.700;24.170;2023-05-19T08:31:01;94167.56;;;22.25;nan
23166;BME280;11751;42.700;24.170;2023-05-19T08:33:26;94155.53;;;22.40;nan
23166;BME280;11751;42.700;24.170;2023-05-19T08:35:52;94167.16;;;22.30;nan
23166;BME280;11751;42.700;24.170;2023-05-19T08:38:19;94181.03;;;22.49;nan
23166;BME280;11751;42.700;24.170;2023-05-19T08:40:45;94171.28;;;22.41;nan
23166;BME280;11751;42.700;24.170;2023-05-19T08:43:11;94167.69;;;22.27;nan
23166;BME280;11751;42.700;24.170;2023-05-19T08:45:41;94171.94;;;22.52;nan
23166;BME280;11751;42.700;24.170;2023-05-19T08:48:07;94160.72;;;22.83;nan
23166;BME280;11751;42.700;24.170;2023-05-19T08:50:38;94152.88;;;22.70;nan
23166;BME280;11751;42.700;24.170;2023-05-19T08:53:10;94164.81;;;22.80;nan
23166;BME280;11751;42.700;24.170;2023-05-19T08:55:46;94160.91;;;22.87;nan
23166;BME280;11751;42.700;24.170;2023-05-19T08:58:13;94164.81;;;22.94;nan
23166;BME280;11751;42.700;24.170;2023-05-19T09:00:40;94172.53;;;22.91;nan
23166;BME280;11751;42.700;24.170;2023-05-19T09:03:06;94178.28;;;22.64;nan
23166;BME280;11751;42.700;24.170;2023-05-19T09:05:32;94178.31;;;22.13;nan
23166;BME280;11751;42.700;24.170;2023-05-19T09:07:57;94178.66;;;21.67;nan
23166;BME280;11751;42.700;24.170;2023-05-19T09:10:26;94161.72;;;21.57;nan
23166;BME280;11751;42.700;24.170;2023-05-19T09:12:52;94175.63;;;21.90;nan
23166;BME280;11751;42.700;24.170;2023-05-19T09:15:18;94178.31;;;21.61;nan
23166;BME280;11751;42.700;24.170;2023-05-19T09:17:45;94174.16;;;21.89;nan
23166;BME280;11751;42.700;24.170;2023-05-19T09:20:12;94168.91;;;21.97;nan
23166;BME280;11751;42.700;24.170;2023-05-19T09:22:44;94171.44;;;22.18;nan
23166;BME280;11751;42.700;24.170;2023-05-19T09:25:37;94174.97;;;22.30;nan
23166;BME280;11751;42.700;24.170;2023-05-19T09:28:10;94163.25;;;22.77;nan
23166;BME280;11751;42.700;24.170;2023-05-19T09:30:35;94168.84;;;22.62;nan
23166;BME280;11751;42.700;24.170;2023-05-19T09:33:01;94178.88;;;22.23;nan
23166;BME280;11751;42.700;24.170;2023-05-19T09:35:28;94171.66;;;21.95;nan
23166;BME280;11751;42.700;24.170;2023-05-19T09:37:54;94165.22;;;21.56;nan
23166;BME280;11751;42.700;24.170;2023-05-19T09:40:21;94178.91;;;21.35;nan
23166;BME280;11751;42.700;24.170;2023-05-19T09:42:52;94175.78;;;21.17;nan
23166;BME280;11751;42.700;24.170;2023-05-19T09:45:18;94180.06;;;20.93;nan
23166;BME280;11751;42.700;24.170;2023-05-19T09:47:44;94187.00;;;20.90;nan
23166;BME280;11751;42.700;24.170;2023-05-19T09:50:11;94181.41;;;20.92;nan
23166;BME280;11751;42.700;24.170;2023-05-19T09:52:38;94180.56;;;21.26;nan
23166;BME280;11751;42.700;24.170;2023-05-19T09:55:08;94180.09;;;21.43;nan
23166;BME280;11751;42.700;24.170;2023-05-19T09:57:35;94186.59;;;21.82;nan
23166;BME280;11751;42.700;24.170;2023-05-19T10:00:06;94167.47;;;22.23;nan
23166;BME280;11751;42.700;24.170;2023-05-19T10:02:50;94186.03;;;21.97;nan
23166;BME280;11751;42.700;24.170;2023-05-19T10:05:17;94186.97;;;21.63;nan
23166;BME280;11751;42.700;24.170;2023-05-19T10:07:49;94189.28;;;21.66;nan
23166;BME280;11751;42.700;24.170;2023-05-19T10:10:16;94187.00;;;21.76;nan
23166;BME280;11751;42.700;24.170;2023-05-19T10:12:42;94183.78;;;21.95;nan
23166;BME280;11751;42.700;24.170;2023-05-19T10:15:13;94177.78;;;22.03;nan
23166;BME280;11751;42.700;24.170;2023-05-19T10:17:40;94172.09;;;22.30;nan
23166;BME280;11751;42.700;24.170;2023-05-19T10:20:11;94179.22;;;21.77;nan
23166;BME280;11751;42.700;24.170;2023-05-19T10:22:39;94166.09;;;21.72;nan
23166;BME280;11751;42.700;24.170;2023-05-19T10:25:06;94170.09;;;21.67;nan
23166;BME280;11751;42.700;24.170;2023-05-19T10:27:35;94177.94;;;21.30;nan
23166;BME280;11751;42.700;24.170;2023-05-19T10:30:19;94173.50;;;21.27;nan
23166;BME280;11751;42.700;24.170;2023-05-19T10:32:46;94163.94;;;20.98;nan
23166;BME280;11751;42.700;24.170;2023-05-19T10:40:35;94169.22;;;21.40;nan
23166;BME280;11751;42.700;24.170;2023-05-19T10:45:47;94168.03;;;21.31;nan
23166;BME280;11751;42.700;24.170;2023-05-19T10:48:18;94166.78;;;21.34;nan
23166;BME280;11751;42.700;24.170;2023-05-19T10:50:45;94172.59;;;21.61;nan
23166;BME280;11751;42.700;24.170;2023-05-19T10:53:14;94178.31;;;21.61;nan
23166;BME280;11751;42.700;24.170;2023-05-19T10:55:53;94182.50;;;21.35;nan
23166;BME280;11751;42.700;24.170;2023-05-19T11:03:48;94173.69;;;22.06;nan
23166;BME280;11751;42.700;24.170;2023-05-19T11:06:27;94168.41;;;22.27;nan
23166;BME280;11751;42.700;24.170;2023-05-19T11:09:33;94160.22;;;22.60;nan
23166;BME280;11751;42.700;24.170;2023-05-19T11:11:52;94158.31;;;22.64;nan
23166;BME280;11751;42.700;24.170;2023-05-19T11:14:20;94165.13;;;22.86;nan
23166;BME280;11751;42.700;24.170;2023-05-19T11:16:50;94157.13;;;23.25;nan
23166;BME280;11751;42.700;24.170;2023-05-19T11:19:28;94150.50;;;23.49;nan
23166;BME280;11751;42.700;24.170;2023-05-19T11:21:54;94156.00;;;23.45;nan
23166;BME280;11751;42.700;24.170;2023-05-19T11:24:46;94159.72;;;23.06;nan
23166;BME280;11751;42.700;24.170;2023-05-19T11:27:26;94160.88;;;23.14;nan
23166;BME280;11751;42.700;24.170;2023-05-19T11:29:53;94150.72;;;22.98;nan
23166;BME280;11751;42.700;24.170;2023-05-19T11:32:21;94159.53;;;22.88;nan
23166;BME280;11751;42.700;24.170;2023-05-19T11:34:47;94148.31;;;23.34;nan
23166;BME280;11751;42.700;24.170;2023-05-19T11:37:14;94142.44;;;23.46;nan
23166;BME280;11751;42.700;24.170;2023-05-19T11:39:40;94132.47;;;23.76;nan
23166;BME280;11751;42.700;24.170;2023-05-19T11:42:07;94133.50;;;23.82;nan
23166;BME280;11751;42.700;24.170;2023-05-19T11:44:33;94131.00;;;23.90;nan
23166;BME280;11751;42.700;24.170;2023-05-19T11:46:58;94126.22;;;24.25;nan
23166;BME280;11751;42.700;24.170;2023-05-19T11:49:24;94130.13;;;24.47;nan
23166;BME280;11751;42.700;24.170;2023-05-19T11:51:49;94129.72;;;24.39;nan
23166;BME280;11751;42.700;24.170;2023-05-19T11:54:15;94131.84;;;24.23;nan
23166;BME280;11751;42.700;24.170;2023-05-19T11:56:41;94124.94;;;24.59;nan
23166;BME280;11751;42.700;24.170;2023-05-19T11:59:07;94125.81;;;24.79;nan
23166;BME280;11751;42.700;24.170;2023-05-19T12:01:34;94124.13;;;24.74;nan
23166;BME280;11751;42.700;24.170;2023-05-19T12:04:17;94129.44;;;24.97;nan
23166;BME280;11751;42.700;24.170;2023-05-19T12:06:43;94137.59;;;24.87;nan
23166;BME280;11751;42.700;24.170;2023-05-19T12:09:09;94127.34;;;24.49;nan
23166;BME280;11751;42.700;24.170;2023-05-19T12:11:36;94128.47;;;24.12;nan
23166;BME280;11751;42.700;24.170;2023-05-19T12:14:02;94139.34;;;24.15;nan
23166;BME280;11751;42.700;24.170;2023-05-19T12:16:33;94150.25;;;23.30;nan
23166;BME280;11751;42.700;24.170;2023-05-19T12:19:00;94138.09;;;23.16;nan
23166;BME280;11751;42.700;24.170;2023-05-19T12:21:25;94134.69;;;23.33;nan
23166;BME280;11751;42.700;24.170;2023-05-19T12:23:51;94142.25;;;23.42;nan
23166;BME280;11751;42.700;24.170;2023-05-19T12:26:16;94151.88;;;23.77;nan
23166;BME280;11751;42.700;24.170;2023-05-19T12:28:44;94145.59;;;23.81;nan
23166;BME280;11751;42.700;24.170;2023-05-19T12:31:10;94141.34;;;23.82;nan
23166;BME280;11751;42.700;24.170;2023-05-19T12:33:37;94145.97;;;23.89;nan
23166;BME280;11751;42.700;24.170;2023-05-19T12:36:03;94146.72;;;23.60;nan
23166;BME280;11751;42.700;24.170;2023-05-19T12:38:29;94161.06;;;23.18;nan
23166;BME280;11751;42.700;24.170;2023-05-19T12:40:57;94160.78;;;23.12;nan
23166;BME280;11751;42.700;24.170;2023-05-19T12:43:23;94169.91;;;22.82;nan
23166;BME280;11751;42.700;24.170;2023-05-19T12:45:49;94177.78;;;23.24;nan
23166;BME280;11751;42.700;24.170;2023-05-19T12:48:14;94177.44;;;22.75;nan
23166;BME280;11751;42.700;24.170;2023-05-19T12:50:41;94174.69;;;22.50;nan
23166;BME280;11751;42.700;24.170;2023-05-19T12:53:07;94163.91;;;22.36;nan
23166;BME280;11751;42.700;24.170;2023-05-19T12:55:40;94160.84;;;22.45;nan
23166;BME280;11751;42.700;24.170;2023-05-19T12:58:10;94155.88;;;22.45;nan
23166;BME280;11751;42.700;24.170;2023-05-19T13:00:43;94152.25;;;22.72;nan
23166;BME280;11751;42.700;24.170;2023-05-19T13:03:19;94149.53;;;23.16;nan
23166;BME280;11751;42.700;24.170;2023-05-19T13:05:49;94137.41;;;23.60;nan
23166;BME280;11751;42.700;24.170;2023-05-19T13:08:15;94134.44;;;23.58;nan
23166;BME280;11751;42.700;24.170;2023-05-19T13:10:44;94143.03;;;23.58;nan
23166;BME280;11751;42.700;24.170;2023-05-19T13:13:10;94125.22;;;23.44;nan
23166;BME280;11751;42.700;24.170;2023-05-19T13:15:39;94126.59;;;23.43;nan
23166;BME280;11751;42.700;24.170;2023-05-19T13:18:06;94123.84;;;23.60;nan
23166;BME280;11751;42.700;24.170;2023-05-19T13:20:33;94137.31;;;24.02;nan
23166;BME280;11751;42.700;24.170;2023-05-19T13:22:59;94135.25;;;24.35;nan
23166;BME280;11751;42.700;24.170;2023-05-19T13:25:25;94128.81;;;24.50;nan
23166;BME280;11751;42.700;24.170;2023-05-19T13:27:51;94124.00;;;24.55;nan
23166;BME280;11751;42.700;24.170;2023-05-19T13:30:17;94113.88;;;25.02;nan
23166;BME280;11751;42.700;24.170;2023-05-19T13:32:44;94112.75;;;25.09;nan
23166;BME280;11751;42.700;24.170;2023-05-19T13:35:10;94107.53;;;25.21;nan
23166;BME280;11751;42.700;24.170;2023-05-19T13:37:36;94113.03;;;25.15;nan
23166;BME280;11751;42.700;24.170;2023-05-19T13:40:04;94116.56;;;25.31;nan